sensor_id;sensor_type;location;lat;lon;timestamp;P1;durP1;ratioP1;P2;durP2;ratioP2
47960;SDS011;33721;48.852;9.936;2023-10-09T00:01:42;19.50;;;8.27;;
47960;SDS011;33721;48.852;9.936;2023-10-09T00:04:11;18.30;;;7.72;;
47960;SDS011;33721;48.852;9.936;2023-10-09T00:06:39;15.60;;;6.80;;
47960;SDS011;33721;48.852;9.936;2023-10-09T00:09:07;16.52;;;7.03;;
47960;SDS011;33721;48.852;9.936;2023-10-09T00:11:42;12.65;;;7.10;;
47960;SDS011;33721;48.852;9.936;2023-10-09T00:14:10;18.98;;;7.50;;
47960;SDS011;33721;48.852;9.936;2023-10-09T00:16:36;19.38;;;7.28;;
47960;SDS011;33721;48.852;9.936;2023-10-09T00:19:08;24.00;;;7.03;;
47960;SDS011;33721;48.852;9.936;2023-10-09T00:21:40;17.20;;;7.30;;
47960;SDS011;33721;48.852;9.936;2023-10-09T00:24:06;15.45;;;6.85;;
47960;SDS011;33721;48.852;9.936;2023-10-09T00:26:39;17.13;;;6.85;;
47960;SDS011;33721;48.852;9.936;2023-10-09T00:29:13;14.27;;;6.82;;
47960;SDS011;33721;48.852;9.936;2023-10-09T00:31:43;18.80;;;7.38;;
47960;SDS011;33721;48.852;9.936;2023-10-09T00:34:18;19.10;;;7.32;;
47960;SDS011;33721;48.852;9.936;2023-10-09T00:36:45;17.13;;;6.78;;
47960;SDS011;33721;48.852;9.936;2023-10-09T00:39:18;21.52;;;7.05;;
47960;SDS011;33721;48.852;9.936;2023-10-09T00:42:08;15.13;;;6.60;;
47960;SDS011;33721;48.852;9.936;2023-10-09T00:44:37;18.10;;;6.50;;
47960;SDS011;33721;48.852;9.936;2023-10-09T00:47:08;17.45;;;6.50;;
47960;SDS011;33721;48.852;9.936;2023-10-09T00:49:57;16.38;;;6.55;;
47960;SDS011;33721;48.852;9.936;2023-10-09T00:52:32;16.52;;;6.93;;
47960;SDS011;33721;48.852;9.936;2023-10-09T00:55:05;15.73;;;6.55;;
47960;SDS011;33721;48.852;9.936;2023-10-09T00:57:46;13.80;;;6.35;;
47960;SDS011;33721;48.852;9.936;2023-10-09T01:00:19;18.45;;;7.28;;
47960;SDS011;33721;48.852;9.936;2023-10-09T01:02:57;20.55;;;6.43;;
47960;SDS011;33721;48.852;9.936;2023-10-09T01:05:38;16.52;;;6.93;;
47960;SDS011;33721;48.852;9.936;2023-10-09T01:08:11;18.17;;;6.82;;
47960;SDS011;33721;48.852;9.936;2023-10-09T01:10:49;20.33;;;7.28;;
47960;SDS011;33721;48.852;9.936;2023-10-09T01:13:45;17.35;;;6.85;;
47960;SDS011;33721;48.852;9.936;2023-10-09T01:16:11;21.70;;;7.25;;
47960;SDS011;33721;48.852;9.936;2023-10-09T01:18:41;19.88;;;6.80;;
47960;SDS011;33721;48.852;9.936;2023-10-09T01:23:40;19.70;;;6.65;;
47960;SDS011;33721;48.852;9.936;2023-10-09T01:26:24;20.15;;;7.13;;
47960;SDS011;33721;48.852;9.936;2023-10-09T01:28:50;15.57;;;6.30;;
47960;SDS011;33721;48.852;9.936;2023-10-09T01:31:18;17.30;;;7.05;;
47960;SDS011;33721;48.852;9.936;2023-10-09T01:33:45;16.70;;;7.13;;
47960;SDS011;33721;48.852;9.936;2023-10-09T01:36:11;13.63;;;6.68;;
47960;SDS011;33721;48.852;9.936;2023-10-09T01:38:40;16.80;;;6.60;;
47960;SDS011;33721;48.852;9.936;2023-10-09T01:41:10;18.50;;;6.38;;
47960;SDS011;33721;48.852;9.936;2023-10-09T01:43:40;15.73;;;6.45;;
47960;SDS011;33721;48.852;9.936;2023-10-09T01:46:09;18.65;;;6.50;;
47960;SDS011;33721;48.852;9.936;2023-10-09T01:48:36;18.00;;;7.13;;
47960;SDS011;33721;48.852;9.936;2023-10-09T01:51:12;17.67;;;6.70;;
47960;SDS011;33721;48.852;9.936;2023-10-09T01:53:42;16.60;;;6.57;;
47960;SDS011;33721;48.852;9.936;2023-10-09T01:56:21;19.58;;;7.13;;
47960;SDS011;33721;48.852;9.936;2023-10-09T01:58:47;15.52;;;6.18;;
47960;SDS011;33721;48.852;9.936;2023-10-09T02:01:15;21.70;;;6.68;;
47960;SDS011;33721;48.852;9.936;2023-10-09T02:03:41;19.15;;;6.75;;
47960;SDS011;33721;48.852;9.936;2023-10-09T02:06:08;13.63;;;6.10;;
47960;SDS011;33721;48.852;9.936;2023-10-09T02:08:54;16.25;;;6.25;;
47960;SDS011;33721;48.852;9.936;2023-10-09T02:11:21;15.30;;;5.93;;
47960;SDS011;33721;48.852;9.936;2023-10-09T02:14:01;16.13;;;6.25;;
47960;SDS011;33721;48.852;9.936;2023-10-09T02:16:30;19.17;;;6.80;;
47960;SDS011;33721;48.852;9.936;2023-10-09T02:19:06;18.83;;;6.47;;
47960;SDS011;33721;48.852;9.936;2023-10-09T02:21:33;16.40;;;7.03;;
47960;SDS011;33721;48.852;9.936;2023-10-09T02:24:04;21.25;;;6.63;;
47960;SDS011;33721;48.852;9.936;2023-10-09T02:26:34;21.40;;;5.75;;
47960;SDS011;33721;48.852;9.936;2023-10-09T02:29:05;15.00;;;5.80;;
47960;SDS011;33721;48.852;9.936;2023-10-09T02:31:37;14.07;;;5.72;;
47960;SDS011;33721;48.852;9.936;2023-10-09T02:34:09;12.70;;;5.55;;
47960;SDS011;33721;48.852;9.936;2023-10-09T02:36:35;13.73;;;5.38;;
47960;SDS011;33721;48.852;9.936;2023-10-09T02:39:07;13.35;;;5.65;;
47960;SDS011;33721;48.852;9.936;2023-10-09T02:44:15;16.77;;;5.85;;
47960;SDS011;33721;48.852;9.936;2023-10-09T02:46:42;23.58;;;5.75;;
47960;SDS011;33721;48.852;9.936;2023-10-09T02:49:09;14.30;;;6.10;;
47960;SDS011;33721;48.852;9.936;2023-10-09T02:51:40;13.88;;;6.03;;
47960;SDS011;33721;48.852;9.936;2023-10-09T02:54:12;14.48;;;6.10;;
47960;SDS011;33721;48.852;9.936;2023-10-09T02:56:52;11.88;;;5.65;;
47960;SDS011;33721;48.852;9.936;2023-10-09T02:59:23;16.08;;;6.10;;
47960;SDS011;33721;48.852;9.936;2023-10-09T03:01:49;14.05;;;6.10;;
47960;SDS011;33721;48.852;9.936;2023-10-09T03:04:17;26.63;;;6.13;;
47960;SDS011;33721;48.852;9.936;2023-10-09T03:06:44;21.42;;;5.57;;
47960;SDS011;33721;48.852;9.936;2023-10-09T03:09:19;19.52;;;5.85;;
47960;SDS011;33721;48.852;9.936;2023-10-09T03:11:52;24.25;;;6.47;;
47960;SDS011;33721;48.852;9.936;2023-10-09T03:14:28;25.73;;;5.53;;
47960;SDS011;33721;48.852;9.936;2023-10-09T03:16:55;13.90;;;5.60;;
47960;SDS011;33721;48.852;9.936;2023-10-09T03:19:22;15.50;;;4.75;;
47960;SDS011;33721;48.852;9.936;2023-10-09T03:21:50;14.77;;;5.65;;
47960;SDS011;33721;48.852;9.936;2023-10-09T03:24:15;14.40;;;5.60;;
47960;SDS011;33721;48.852;9.936;2023-10-09T03:26:43;18.92;;;5.80;;
47960;SDS011;33721;48.852;9.936;2023-10-09T03:29:12;16.48;;;5.40;;
47960;SDS011;33721;48.852;9.936;2023-10-09T03:31:37;11.82;;;5.05;;
47960;SDS011;33721;48.852;9.936;2023-10-09T03:34:03;18.00;;;5.88;;
47960;SDS011;33721;48.852;9.936;2023-10-09T03:36:29;29.52;;;5.60;;
47960;SDS011;33721;48.852;9.936;2023-10-09T03:39:06;40.40;;;6.57;;
47960;SDS011;33721;48.852;9.936;2023-10-09T03:42:04;17.73;;;5.22;;
47960;SDS011;33721;48.852;9.936;2023-10-09T03:44:33;23.00;;;6.03;;
47960;SDS011;33721;48.852;9.936;2023-10-09T03:47:00;23.50;;;5.65;;
47960;SDS011;33721;48.852;9.936;2023-10-09T03:49:30;23.08;;;5.05;;
47960;SDS011;33721;48.852;9.936;2023-10-09T03:51:56;32.95;;;6.28;;
47960;SDS011;33721;48.852;9.936;2023-10-09T03:54:24;32.63;;;6.22;;
47960;SDS011;33721;48.852;9.936;2023-10-09T03:56:50;31.15;;;6.30;;
47960;SDS011;33721;48.852;9.936;2023-10-09T03:59:16;29.70;;;5.15;;
47960;SDS011;33721;48.852;9.936;2023-10-09T04:01:45;24.13;;;5.93;;
47960;SDS011;33721;48.852;9.936;2023-10-09T04:04:12;30.45;;;4.80;;
47960;SDS011;33721;48.852;9.936;2023-10-09T04:06:39;31.75;;;6.15;;
47960;SDS011;33721;48.852;9.936;2023-10-09T04:09:06;27.55;;;5.97;;
47960;SDS011;33721;48.852;9.936;2023-10-09T04:11:51;33.72;;;5.72;;
47960;SDS011;33721;48.852;9.936;2023-10-09T04:14:49;29.27;;;5.20;;
47960;SDS011;33721;48.852;9.936;2023-10-09T04:17:19;23.55;;;5.40;;
47960;SDS011;33721;48.852;9.936;2023-10-09T04:19:54;27.20;;;5.50;;
47960;SDS011;33721;48.852;9.936;2023-10-09T04:22:39;30.00;;;6.32;;
47960;SDS011;33721;48.852;9.936;2023-10-09T04:25:24;23.05;;;5.43;;
47960;SDS011;33721;48.852;9.936;2023-10-09T04:27:51;38.83;;;6.35;;
47960;SDS011;33721;48.852;9.936;2023-10-09T04:30:18;31.85;;;6.00;;
47960;SDS011;33721;48.852;9.936;2023-10-09T04:32:44;30.33;;;6.78;;
47960;SDS011;33721;48.852;9.936;2023-10-09T04:35:10;34.80;;;7.07;;
47960;SDS011;33721;48.852;9.936;2023-10-09T04:37:48;32.72;;;5.90;;
47960;SDS011;33721;48.852;9.936;2023-10-09T04:40:29;21.88;;;5.43;;
47960;SDS011;33721;48.852;9.936;2023-10-09T04:43:13;26.90;;;5.18;;
47960;SDS011;33721;48.852;9.936;2023-10-09T04:45:48;23.85;;;6.05;;
47960;SDS011;33721;48.852;9.936;2023-10-09T04:48:31;20.75;;;5.60;;
47960;SDS011;33721;48.852;9.936;2023-10-09T04:51:03;28.58;;;6.30;;
47960;SDS011;33721;48.852;9.936;2023-10-09T04:53:59;25.33;;;6.50;;
47960;SDS011;33721;48.852;9.936;2023-10-09T04:56:38;25.30;;;6.70;;
47960;SDS011;33721;48.852;9.936;2023-10-09T04:59:19;27.13;;;6.90;;
47960;SDS011;33721;48.852;9.936;2023-10-09T05:01:50;31.38;;;6.75;;
47960;SDS011;33721;48.852;9.936;2023-10-09T05:04:26;23.42;;;6.25;;
47960;SDS011;33721;48.852;9.936;2023-10-09T05:07:06;31.25;;;5.97;;
47960;SDS011;33721;48.852;9.936;2023-10-09T05:09:52;30.00;;;6.68;;
47960;SDS011;33721;48.852;9.936;2023-10-09T05:12:20;23.95;;;5.78;;
47960;SDS011;33721;48.852;9.936;2023-10-09T05:14:51;27.98;;;5.82;;
47960;SDS011;33721;48.852;9.936;2023-10-09T05:17:38;26.45;;;5.85;;
47960;SDS011;33721;48.852;9.936;2023-10-09T05:20:05;31.52;;;6.38;;
47960;SDS011;33721;48.852;9.936;2023-10-09T05:22:49;30.35;;;5.35;;
47960;SDS011;33721;48.852;9.936;2023-10-09T05:25:32;27.52;;;5.30;;
47960;SDS011;33721;48.852;9.936;2023-10-09T05:28:16;24.77;;;5.03;;
47960;SDS011;33721;48.852;9.936;2023-10-09T05:30:57;25.10;;;5.07;;
47960;SDS011;33721;48.852;9.936;2023-10-09T05:33:36;31.70;;;5.45;;
47960;SDS011;33721;48.852;9.936;2023-10-09T05:36:03;28.40;;;5.07;;
47960;SDS011;33721;48.852;9.936;2023-10-09T05:39:02;34.33;;;5.38;;
47960;SDS011;33721;48.852;9.936;2023-10-09T05:41:50;24.10;;;5.32;;
47960;SDS011;33721;48.852;9.936;2023-10-09T05:44:16;24.83;;;5.20;;
47960;SDS011;33721;48.852;9.936;2023-10-09T05:47:00;30.30;;;6.05;;
47960;SDS011;33721;48.852;9.936;2023-10-09T05:49:44;25.10;;;5.85;;
47960;SDS011;33721;48.852;9.936;2023-10-09T05:52:20;30.27;;;5.03;;
47960;SDS011;33721;48.852;9.936;2023-10-09T05:55:04;28.15;;;4.95;;
47960;SDS011;33721;48.852;9.936;2023-10-09T05:57:42;33.33;;;5.38;;
47960;SDS011;33721;48.852;9.936;2023-10-09T06:00:20;26.25;;;4.93;;
47960;SDS011;33721;48.852;9.936;2023-10-09T06:03:05;30.60;;;4.78;;
47960;SDS011;33721;48.852;9.936;2023-10-09T06:08:21;24.45;;;4.85;;
47960;SDS011;33721;48.852;9.936;2023-10-09T06:11:09;35.05;;;5.28;;
47960;SDS011;33721;48.852;9.936;2023-10-09T06:13:54;32.97;;;4.90;;
47960;SDS011;33721;48.852;9.936;2023-10-09T06:16:37;30.13;;;5.45;;
47960;SDS011;33721;48.852;9.936;2023-10-09T06:19:08;35.25;;;5.10;;
47960;SDS011;33721;48.852;9.936;2023-10-09T06:21:44;26.23;;;5.22;;
47960;SDS011;33721;48.852;9.936;2023-10-09T06:24:28;28.98;;;4.78;;
47960;SDS011;33721;48.852;9.936;2023-10-09T06:27:10;33.47;;;5.50;;
47960;SDS011;33721;48.852;9.936;2023-10-09T06:29:39;28.35;;;5.53;;
47960;SDS011;33721;48.852;9.936;2023-10-09T06:32:09;23.80;;;4.50;;
47960;SDS011;33721;48.852;9.936;2023-10-09T06:34:45;25.38;;;5.20;;
47960;SDS011;33721;48.852;9.936;2023-10-09T06:37:16;31.17;;;6.13;;
47960;SDS011;33721;48.852;9.936;2023-10-09T06:39:48;26.80;;;5.10;;
47960;SDS011;33721;48.852;9.936;2023-10-09T06:42:24;25.63;;;4.97;;
47960;SDS011;33721;48.852;9.936;2023-10-09T06:44:59;28.52;;;5.25;;
47960;SDS011;33721;48.852;9.936;2023-10-09T06:47:51;23.75;;;4.88;;
47960;SDS011;33721;48.852;9.936;2023-10-09T06:50:55;27.25;;;5.13;;
47960;SDS011;33721;48.852;9.936;2023-10-09T06:53:29;31.70;;;4.82;;
47960;SDS011;33721;48.852;9.936;2023-10-09T06:56:14;31.50;;;5.38;;
47960;SDS011;33721;48.852;9.936;2023-10-09T06:58:51;19.50;;;4.80;;
47960;SDS011;33721;48.852;9.936;2023-10-09T07:01:20;26.98;;;5.40;;
47960;SDS011;33721;48.852;9.936;2023-10-09T07:03:56;25.65;;;4.75;;
47960;SDS011;33721;48.852;9.936;2023-10-09T07:06:42;27.20;;;5.72;;
47960;SDS011;33721;48.852;9.936;2023-10-09T07:09:07;27.33;;;4.63;;
47960;SDS011;33721;48.852;9.936;2023-10-09T07:11:36;28.45;;;4.90;;
47960;SDS011;33721;48.852;9.936;2023-10-09T07:14:17;30.20;;;5.57;;
47960;SDS011;33721;48.852;9.936;2023-10-09T07:16:55;31.30;;;4.75;;
47960;SDS011;33721;48.852;9.936;2023-10-09T07:19:25;28.65;;;4.90;;
47960;SDS011;33721;48.852;9.936;2023-10-09T07:22:20;20.58;;;4.45;;
47960;SDS011;33721;48.852;9.936;2023-10-09T07:24:46;29.85;;;5.43;;
47960;SDS011;33721;48.852;9.936;2023-10-09T07:27:21;23.92;;;5.15;;
47960;SDS011;33721;48.852;9.936;2023-10-09T07:30:07;31.60;;;5.28;;
47960;SDS011;33721;48.852;9.936;2023-10-09T07:35:42;42.28;;;5.38;;
47960;SDS011;33721;48.852;9.936;2023-10-09T07:40:45;20.65;;;4.13;;
47960;SDS011;33721;48.852;9.936;2023-10-09T07:43:25;27.40;;;4.55;;
47960;SDS011;33721;48.852;9.936;2023-10-09T07:46:03;24.90;;;5.18;;
47960;SDS011;33721;48.852;9.936;2023-10-09T07:48:29;27.70;;;4.22;;
47960;SDS011;33721;48.852;9.936;2023-10-09T07:51:13;19.80;;;4.53;;
47960;SDS011;33721;48.852;9.936;2023-10-09T07:53:39;25.40;;;4.80;;
47960;SDS011;33721;48.852;9.936;2023-10-09T07:56:11;28.73;;;5.05;;
47960;SDS011;33721;48.852;9.936;2023-10-09T07:58:45;21.13;;;4.80;;
47960;SDS011;33721;48.852;9.936;2023-10-09T08:01:15;28.30;;;5.28;;
47960;SDS011;33721;48.852;9.936;2023-10-09T08:03:46;25.98;;;4.85;;
47960;SDS011;33721;48.852;9.936;2023-10-09T08:06:12;33.95;;;5.28;;
47960;SDS011;33721;48.852;9.936;2023-10-09T08:08:57;26.95;;;5.68;;
47960;SDS011;33721;48.852;9.936;2023-10-09T08:14:25;27.10;;;5.75;;
47960;SDS011;33721;48.852;9.936;2023-10-09T08:16:59;31.60;;;5.82;;
47960;SDS011;33721;48.852;9.936;2023-10-09T08:19:40;37.75;;;4.97;;
47960;SDS011;33721;48.852;9.936;2023-10-09T08:22:21;34.05;;;5.53;;
47960;SDS011;33721;48.852;9.936;2023-10-09T08:24:51;24.60;;;4.97;;
47960;SDS011;33721;48.852;9.936;2023-10-09T08:30:11;23.38;;;4.95;;
47960;SDS011;33721;48.852;9.936;2023-10-09T08:32:44;28.25;;;4.78;;
47960;SDS011;33721;48.852;9.936;2023-10-09T08:35:32;33.42;;;5.68;;
47960;SDS011;33721;48.852;9.936;2023-10-09T08:38:00;26.40;;;5.05;;
47960;SDS011;33721;48.852;9.936;2023-10-09T08:40:33;23.65;;;4.53;;
47960;SDS011;33721;48.852;9.936;2023-10-09T08:43:13;29.33;;;5.35;;
47960;SDS011;33721;48.852;9.936;2023-10-09T08:45:45;27.23;;;4.60;;
47960;SDS011;33721;48.852;9.936;2023-10-09T08:48:11;25.50;;;5.20;;
47960;SDS011;33721;48.852;9.936;2023-10-09T08:50:46;38.15;;;5.15;;
47960;SDS011;33721;48.852;9.936;2023-10-09T08:53:13;21.55;;;4.90;;
47960;SDS011;33721;48.852;9.936;2023-10-09T08:55:40;25.65;;;4.68;;
47960;SDS011;33721;48.852;9.936;2023-10-09T08:58:06;17.98;;;4.45;;
47960;SDS011;33721;48.852;9.936;2023-10-09T09:00:42;21.17;;;4.63;;
47960;SDS011;33721;48.852;9.936;2023-10-09T09:03:10;27.55;;;5.22;;
47960;SDS011;33721;48.852;9.936;2023-10-09T09:05:37;31.38;;;5.00;;
47960;SDS011;33721;48.852;9.936;2023-10-09T09:08:03;23.95;;;4.97;;
47960;SDS011;33721;48.852;9.936;2023-10-09T09:10:28;23.38;;;4.97;;
47960;SDS011;33721;48.852;9.936;2023-10-09T09:13:03;19.50;;;4.25;;
47960;SDS011;33721;48.852;9.936;2023-10-09T09:15:32;28.70;;;4.72;;
47960;SDS011;33721;48.852;9.936;2023-10-09T09:18:04;30.55;;;5.80;;
47960;SDS011;33721;48.852;9.936;2023-10-09T09:20:31;29.90;;;5.35;;
47960;SDS011;33721;48.852;9.936;2023-10-09T09:23:02;24.73;;;5.38;;
47960;SDS011;33721;48.852;9.936;2023-10-09T09:28:22;24.38;;;4.50;;
47960;SDS011;33721;48.852;9.936;2023-10-09T09:30:48;22.40;;;4.32;;
47960;SDS011;33721;48.852;9.936;2023-10-09T09:33:17;24.35;;;5.13;;
47960;SDS011;33721;48.852;9.936;2023-10-09T09:36:04;20.63;;;4.70;;
47960;SDS011;33721;48.852;9.936;2023-10-09T09:38:31;24.77;;;4.90;;
47960;SDS011;33721;48.852;9.936;2023-10-09T09:41:07;30.60;;;5.47;;
47960;SDS011;33721;48.852;9.936;2023-10-09T09:43:34;29.77;;;5.10;;
47960;SDS011;33721;48.852;9.936;2023-10-09T09:46:01;26.10;;;5.15;;
47960;SDS011;33721;48.852;9.936;2023-10-09T09:48:33;20.58;;;4.47;;
47960;SDS011;33721;48.852;9.936;2023-10-09T09:51:04;29.00;;;5.18;;
47960;SDS011;33721;48.852;9.936;2023-10-09T09:53:33;27.38;;;4.70;;
47960;SDS011;33721;48.852;9.936;2023-10-09T09:56:00;30.27;;;5.07;;
47960;SDS011;33721;48.852;9.936;2023-10-09T09:58:28;40.95;;;5.18;;
47960;SDS011;33721;48.852;9.936;2023-10-09T10:01:08;20.67;;;4.38;;
47960;SDS011;33721;48.852;9.936;2023-10-09T10:03:47;26.65;;;5.15;;
47960;SDS011;33721;48.852;9.936;2023-10-09T10:06:17;29.83;;;4.50;;
47960;SDS011;33721;48.852;9.936;2023-10-09T10:08:45;23.30;;;5.07;;
47960;SDS011;33721;48.852;9.936;2023-10-09T10:11:58;26.73;;;4.80;;
47960;SDS011;33721;48.852;9.936;2023-10-09T10:14:14;28.92;;;4.88;;
47960;SDS011;33721;48.852;9.936;2023-10-09T10:17:05;30.17;;;4.63;;
47960;SDS011;33721;48.852;9.936;2023-10-09T10:22:26;29.65;;;6.22;;
47960;SDS011;33721;48.852;9.936;2023-10-09T10:24:53;31.63;;;4.57;;
47960;SDS011;33721;48.852;9.936;2023-10-09T10:27:22;33.47;;;4.43;;
47960;SDS011;33721;48.852;9.936;2023-10-09T10:32:57;25.77;;;5.00;;
47960;SDS011;33721;48.852;9.936;2023-10-09T10:35:41;24.45;;;5.25;;
47960;SDS011;33721;48.852;9.936;2023-10-09T10:38:26;39.45;;;4.57;;
47960;SDS011;33721;48.852;9.936;2023-10-09T10:43:36;28.73;;;4.05;;
47960;SDS011;33721;48.852;9.936;2023-10-09T10:46:17;36.80;;;4.75;;
47960;SDS011;33721;48.852;9.936;2023-10-09T10:48:55;30.48;;;4.15;;
47960;SDS011;33721;48.852;9.936;2023-10-09T10:51:28;32.00;;;4.88;;
47960;SDS011;33721;48.852;9.936;2023-10-09T10:54:03;31.17;;;5.38;;
47960;SDS011;33721;48.852;9.936;2023-10-09T10:56:47;35.08;;;4.68;;
47960;SDS011;33721;48.852;9.936;2023-10-09T10:59:14;36.78;;;4.75;;
47960;SDS011;33721;48.852;9.936;2023-10-09T11:01:47;24.08;;;5.07;;
47960;SDS011;33721;48.852;9.936;2023-10-09T11:04:38;28.65;;;5.05;;
47960;SDS011;33721;48.852;9.936;2023-10-09T11:07:07;34.00;;;5.00;;
47960;SDS011;33721;48.852;9.936;2023-10-09T11:10:02;36.38;;;4.57;;
47960;SDS011;33721;48.852;9.936;2023-10-09T11:15:10;32.28;;;5.38;;
47960;SDS011;33721;48.852;9.936;2023-10-09T11:18:00;27.77;;;4.65;;
47960;SDS011;33721;48.852;9.936;2023-10-09T11:20:30;32.15;;;4.45;;
47960;SDS011;33721;48.852;9.936;2023-10-09T11:22:58;25.75;;;4.55;;
47960;SDS011;33721;48.852;9.936;2023-10-09T11:25:36;24.70;;;4.72;;
47960;SDS011;33721;48.852;9.936;2023-10-09T11:28:18;30.30;;;4.47;;
47960;SDS011;33721;48.852;9.936;2023-10-09T11:31:08;30.92;;;4.45;;
47960;SDS011;33721;48.852;9.936;2023-10-09T11:33:50;28.35;;;4.35;;
47960;SDS011;33721;48.852;9.936;2023-10-09T11:36:17;34.42;;;4.57;;
47960;SDS011;33721;48.852;9.936;2023-10-09T11:38:56;27.92;;;5.50;;
47960;SDS011;33721;48.852;9.936;2023-10-09T11:41:42;26.33;;;4.57;;
47960;SDS011;33721;48.852;9.936;2023-10-09T11:44:09;44.65;;;4.85;;
47960;SDS011;33721;48.852;9.936;2023-10-09T11:46:59;35.55;;;5.80;;
47960;SDS011;33721;48.852;9.936;2023-10-09T11:52:21;27.63;;;4.90;;
47960;SDS011;33721;48.852;9.936;2023-10-09T11:54:56;35.50;;;5.50;;
47960;SDS011;33721;48.852;9.936;2023-10-09T11:57:24;35.92;;;4.43;;
47960;SDS011;33721;48.852;9.936;2023-10-09T12:00:04;32.47;;;4.75;;
47960;SDS011;33721;48.852;9.936;2023-10-09T12:02:50;28.92;;;4.97;;
47960;SDS011;33721;48.852;9.936;2023-10-09T12:05:17;39.00;;;4.65;;
47960;SDS011;33721;48.852;9.936;2023-10-09T12:07:44;37.42;;;5.68;;
47960;SDS011;33721;48.852;9.936;2023-10-09T12:10:10;32.00;;;5.68;;
47960;SDS011;33721;48.852;9.936;2023-10-09T12:12:38;29.83;;;4.80;;
47960;SDS011;33721;48.852;9.936;2023-10-09T12:15:05;32.25;;;4.72;;
47960;SDS011;33721;48.852;9.936;2023-10-09T12:17:31;28.73;;;5.22;;
47960;SDS011;33721;48.852;9.936;2023-10-09T12:19:57;28.52;;;4.30;;
47960;SDS011;33721;48.852;9.936;2023-10-09T12:22:23;24.65;;;4.68;;
47960;SDS011;33721;48.852;9.936;2023-10-09T12:24:52;33.75;;;5.93;;
47960;SDS011;33721;48.852;9.936;2023-10-09T12:27:19;33.60;;;4.75;;
47960;SDS011;33721;48.852;9.936;2023-10-09T12:29:45;31.10;;;5.80;;
47960;SDS011;33721;48.852;9.936;2023-10-09T12:32:11;34.90;;;5.35;;
47960;SDS011;33721;48.852;9.936;2023-10-09T12:34:37;30.55;;;4.95;;
47960;SDS011;33721;48.852;9.936;2023-10-09T12:37:04;29.58;;;4.97;;
47960;SDS011;33721;48.852;9.936;2023-10-09T12:39:31;30.85;;;4.60;;
47960;SDS011;33721;48.852;9.936;2023-10-09T12:42:05;30.92;;;5.85;;
47960;SDS011;33721;48.852;9.936;2023-10-09T12:44:34;37.42;;;4.60;;
47960;SDS011;33721;48.852;9.936;2023-10-09T12:47:06;36.10;;;5.40;;
47960;SDS011;33721;48.852;9.936;2023-10-09T12:49:32;27.23;;;4.80;;
47960;SDS011;33721;48.852;9.936;2023-10-09T12:51:58;34.67;;;5.47;;
47960;SDS011;33721;48.852;9.936;2023-10-09T12:54:27;32.28;;;6.43;;
47960;SDS011;33721;48.852;9.936;2023-10-09T12:56:56;33.22;;;5.35;;
47960;SDS011;33721;48.852;9.936;2023-10-09T12:59:22;29.35;;;5.38;;
47960;SDS011;33721;48.852;9.936;2023-10-09T13:01:49;25.77;;;4.85;;
47960;SDS011;33721;48.852;9.936;2023-10-09T13:04:17;35.60;;;5.15;;
47960;SDS011;33721;48.852;9.936;2023-10-09T13:06:47;34.00;;;5.05;;
47960;SDS011;33721;48.852;9.936;2023-10-09T13:09:16;36.08;;;4.97;;
47960;SDS011;33721;48.852;9.936;2023-10-09T13:11:58;34.95;;;5.35;;
47960;SDS011;33721;48.852;9.936;2023-10-09T13:14:25;26.10;;;4.53;;
47960;SDS011;33721;48.852;9.936;2023-10-09T13:16:51;33.83;;;5.00;;
47960;SDS011;33721;48.852;9.936;2023-10-09T13:19:18;29.45;;;4.60;;
47960;SDS011;33721;48.852;9.936;2023-10-09T13:21:44;27.88;;;4.88;;
47960;SDS011;33721;48.852;9.936;2023-10-09T13:24:10;24.38;;;4.80;;
47960;SDS011;33721;48.852;9.936;2023-10-09T13:26:40;27.90;;;5.10;;
47960;SDS011;33721;48.852;9.936;2023-10-09T13:29:16;24.40;;;5.10;;
47960;SDS011;33721;48.852;9.936;2023-10-09T13:31:47;37.28;;;6.03;;
47960;SDS011;33721;48.852;9.936;2023-10-09T13:34:14;27.80;;;5.22;;
47960;SDS011;33721;48.852;9.936;2023-10-09T13:36:41;30.67;;;4.80;;
47960;SDS011;33721;48.852;9.936;2023-10-09T13:39:20;26.48;;;4.95;;
47960;SDS011;33721;48.852;9.936;2023-10-09T13:41:51;25.15;;;4.57;;
47960;SDS011;33721;48.852;9.936;2023-10-09T13:44:42;22.40;;;4.93;;
47960;SDS011;33721;48.852;9.936;2023-10-09T13:47:07;34.28;;;4.70;;
47960;SDS011;33721;48.852;9.936;2023-10-09T13:49:44;34.97;;;4.78;;
47960;SDS011;33721;48.852;9.936;2023-10-09T13:52:17;24.95;;;4.50;;
47960;SDS011;33721;48.852;9.936;2023-10-09T13:54:47;32.20;;;4.45;;
47960;SDS011;33721;48.852;9.936;2023-10-09T13:57:15;28.10;;;5.28;;
47960;SDS011;33721;48.852;9.936;2023-10-09T13:59:42;30.48;;;4.97;;
47960;SDS011;33721;48.852;9.936;2023-10-09T14:02:14;29.88;;;4.68;;
47960;SDS011;33721;48.852;9.936;2023-10-09T14:04:46;28.05;;;5.25;;
47960;SDS011;33721;48.852;9.936;2023-10-09T14:07:12;39.95;;;5.20;;
47960;SDS011;33721;48.852;9.936;2023-10-09T14:09:42;26.02;;;5.03;;
47960;SDS011;33721;48.852;9.936;2023-10-09T14:12:20;34.90;;;6.38;;
47960;SDS011;33721;48.852;9.936;2023-10-09T14:14:48;31.35;;;5.75;;
47960;SDS011;33721;48.852;9.936;2023-10-09T14:17:22;33.42;;;5.38;;
47960;SDS011;33721;48.852;9.936;2023-10-09T14:19:49;32.63;;;5.28;;
47960;SDS011;33721;48.852;9.936;2023-10-09T14:22:25;31.02;;;5.68;;
47960;SDS011;33721;48.852;9.936;2023-10-09T14:24:51;37.17;;;5.70;;
47960;SDS011;33721;48.852;9.936;2023-10-09T14:27:21;35.20;;;5.40;;
47960;SDS011;33721;48.852;9.936;2023-10-09T14:29:51;32.78;;;5.28;;
47960;SDS011;33721;48.852;9.936;2023-10-09T14:32:21;30.40;;;5.07;;
47960;SDS011;33721;48.852;9.936;2023-10-09T14:34:53;25.08;;;5.50;;
47960;SDS011;33721;48.852;9.936;2023-10-09T14:37:25;30.85;;;6.00;;
47960;SDS011;33721;48.852;9.936;2023-10-09T14:39:51;40.33;;;5.88;;
47960;SDS011;33721;48.852;9.936;2023-10-09T14:42:18;27.88;;;6.00;;
47960;SDS011;33721;48.852;9.936;2023-10-09T14:44:45;32.30;;;5.72;;
47960;SDS011;33721;48.852;9.936;2023-10-09T14:47:11;37.42;;;5.15;;
47960;SDS011;33721;48.852;9.936;2023-10-09T14:49:39;38.83;;;6.32;;
47960;SDS011;33721;48.852;9.936;2023-10-09T14:52:11;29.25;;;5.28;;
47960;SDS011;33721;48.852;9.936;2023-10-09T14:54:41;29.85;;;5.30;;
47960;SDS011;33721;48.852;9.936;2023-10-09T14:57:09;22.08;;;5.78;;
47960;SDS011;33721;48.852;9.936;2023-10-09T14:59:36;32.85;;;6.43;;
47960;SDS011;33721;48.852;9.936;2023-10-09T15:02:03;25.10;;;5.93;;
47960;SDS011;33721;48.852;9.936;2023-10-09T15:04:30;38.22;;;5.75;;
47960;SDS011;33721;48.852;9.936;2023-10-09T15:06:56;24.77;;;5.60;;
47960;SDS011;33721;48.852;9.936;2023-10-09T15:09:22;26.08;;;6.15;;
47960;SDS011;33721;48.852;9.936;2023-10-09T15:11:50;28.50;;;6.88;;
47960;SDS011;33721;48.852;9.936;2023-10-09T15:14:17;30.08;;;5.18;;
47960;SDS011;33721;48.852;9.936;2023-10-09T15:16:46;28.70;;;5.22;;
47960;SDS011;33721;48.852;9.936;2023-10-09T15:19:12;47.53;;;6.30;;
47960;SDS011;33721;48.852;9.936;2023-10-09T15:21:39;27.40;;;6.03;;
47960;SDS011;33721;48.852;9.936;2023-10-09T15:24:12;40.38;;;5.32;;
47960;SDS011;33721;48.852;9.936;2023-10-09T15:26:47;27.10;;;5.50;;
47960;SDS011;33721;48.852;9.936;2023-10-09T15:29:20;22.70;;;5.78;;
47960;SDS011;33721;48.852;9.936;2023-10-09T15:31:53;23.45;;;5.38;;
47960;SDS011;33721;48.852;9.936;2023-10-09T15:34:19;39.25;;;6.03;;
47960;SDS011;33721;48.852;9.936;2023-10-09T15:36:45;25.15;;;5.25;;
47960;SDS011;33721;48.852;9.936;2023-10-09T15:39:14;23.95;;;6.00;;
47960;SDS011;33721;48.852;9.936;2023-10-09T15:41:44;40.13;;;6.17;;
47960;SDS011;33721;48.852;9.936;2023-10-09T15:44:11;30.15;;;6.07;;